Time;durP1;ratioP1;P1;durP2;ratioP2;P2;SDS_P1;SDS_P2;PMS_P1;PMS_P2;Temp;Humidity;BMP_temperature;BMP_pressure;BME280_temperature;BME280_humidity;BME280_pressure;Samples;Min_cycle;Max_cycle;Signal;HPM_P1;HPM_P2
2022/03/01 00:00:30;;;;;;;;;55.25;42.00;;;;;7.59;46.35;102188.50;5065789;28;46387;-79
2022/03/01 00:02:56;;;;;;;;;53.75;41.25;;;;;7.58;46.34;102192.25;5045804;28;45740;-80
2022/03/01 00:05:21;;;;;;;;;55.00;41.50;;;;;7.53;46.51;102180.91;5064971;28;45467;-79
2022/03/01 00:07:47;;;;;;;;;53.75;42.50;;;;;7.51;45.89;102191.97;5065441;28;45771;-80
2022/03/01 00:10:12;;;;;;;;;54.25;44.25;;;;;7.44;46.62;102185.44;5065193;28;46727;-80
2022/03/01 00:12:38;;;;;;;;;54.75;41.50;;;;;7.38;46.77;102186.03;5040894;28;45589;-75
2022/03/01 00:15:05;;;;;;;;;52.50;42.50;;;;;7.34;46.77;102181.91;5033876;28;45450;-76
2022/03/01 00:17:30;;;;;;;;;52.00;38.00;;;;;7.35;47.37;102187.22;5056146;28;47371;-74
2022/03/01 00:19:56;;;;;;;;;60.25;43.00;;;;;7.31;47.10;102183.06;5058302;28;45416;-74
2022/03/01 00:22:21;;;;;;;;;54.50;44.00;;;;;7.26;47.59;102177.22;5057221;28;45501;-76
2022/03/01 00:24:50;;;;;;;;;55.00;40.75;;;;;7.23;47.50;102183.81;5072874;28;45418;-76
2022/03/01 00:27:19;;;;;;;;;55.50;44.50;;;;;7.19;47.28;102176.94;5060796;28;45844;-75
2022/03/01 00:29:45;;;;;;;;;49.75;40.25;;;;;7.13;47.81;102169.38;5062121;28;46715;-75
2022/03/01 00:32:10;;;;;;;;;55.75;41.25;;;;;7.13;47.86;102171.25;5061831;28;45446;-75
2022/03/01 00:34:36;;;;;;;;;58.25;43.75;;;;;7.08;47.96;102168.97;5062250;28;45591;-72
2022/03/01 00:37:02;;;;;;;;;56.50;45.50;;;;;6.96;47.87;102151.06;5061263;28;45708;-75
2022/03/01 00:39:28;;;;;;;;;51.50;42.75;;;;;7.01;48.08;102168.69;5061845;28;47985;-75
2022/03/01 00:41:53;;;;;;;;;54.75;44.00;;;;;6.97;47.88;102161.81;5079279;28;45800;-75
2022/03/01 00:44:19;;;;;;;;;53.25;41.75;;;;;6.93;48.54;102173.19;5064763;28;45494;-74
2022/03/01 00:46:44;;;;;;;;;54.50;43.75;;;;;6.83;48.38;102165.91;5080865;28;45388;-76
2022/03/01 00:49:13;;;;;;;;;44.75;39.00;;;;;6.81;48.90;102170.66;5081544;28;45505;-75
2022/03/01 00:51:39;;;;;;;;;54.25;42.25;;;;;6.79;48.72;102172.66;5074153;28;45685;-76
2022/03/01 00:54:04;;;;;;;;;56.50;46.25;;;;;6.78;48.91;102179.13;5060703;28;45416;-74
2022/03/01 00:56:30;;;;;;;;;54.25;42.25;;;;;6.75;48.67;102184.91;5060250;28;45399;-77
2022/03/01 00:58:56;;;;;;;;;56.00;42.50;;;;;6.76;49.34;102194.75;5060352;28;45023;-75
2022/03/01 01:01:22;;;;;;;;;52.50;39.75;;;;;6.72;48.84;102185.16;5060026;28;45762;-75
2022/03/01 01:03:48;;;;;;;;;54.50;44.25;;;;;6.76;48.59;102191.19;5060284;28;45626;-75
2022/03/01 01:06:13;;;;;;;;;57.00;44.00;;;;;6.72;49.25;102182.44;5060181;28;45289;-73
2022/03/01 01:08:39;;;;;;;;;59.75;45.50;;;;;6.63;49.02;102175.16;5059817;28;45501;-73
2022/03/01 01:11:05;;;;;;;;;56.75;45.50;;;;;6.67;49.05;102171.13;5060034;28;45315;-74
2022/03/01 01:13:31;;;;;;;;;60.50;47.25;;;;;6.62;49.40;102163.41;5061242;28;45755;-74
2022/03/01 01:15:56;;;;;;;;;53.25;42.75;;;;;6.61;49.12;102172.56;5079794;28;45548;-72
2022/03/01 01:18:22;;;;;;;;;55.75;41.50;;;;;6.63;49.92;102172.41;5079745;28;45916;-74
2022/03/01 01:20:47;;;;;;;;;59.25;43.25;;;;;6.64;49.67;102177.72;5079308;28;45383;-74
2022/03/01 01:23:13;;;;;;;;;57.00;45.25;;;;;6.64;50.14;102175.00;5063655;28;45407;-75
2022/03/01 01:25:38;;;;;;;;;63.00;49.25;;;;;6.62;49.42;102168.84;5062045;28;46432;-73
2022/03/01 01:28:04;;;;;;;;;59.00;46.00;;;;;6.65;49.80;102167.69;5079657;28;45780;-73
2022/03/01 01:30:32;;;;;;;;;58.75;45.25;;;;;6.57;49.73;102153.94;5059685;28;45407;-74
2022/03/01 01:32:58;;;;;;;;;57.75;44.50;;;;;6.53;49.98;102156.94;5077796;28;45433;-72
2022/03/01 01:35:26;;;;;;;;;56.75;45.50;;;;;6.57;49.95;102164.84;5080000;28;45430;-72
2022/03/01 01:37:52;;;;;;;;;57.50;44.50;;;;;6.54;50.28;102149.63;5077960;28;45540;-74
2022/03/01 01:40:24;;;;;;;;;54.25;44.25;;;;;6.54;50.07;102161.41;5075328;28;45370;-74
2022/03/01 01:42:52;;;;;;;;;61.75;49.00;;;;;6.55;49.76;102167.72;5060091;28;44789;-74
2022/03/01 01:45:18;;;;;;;;;62.75;47.00;;;;;6.50;50.19;102157.25;5059748;28;45502;-74
2022/03/01 01:47:43;;;;;;;;;56.50;46.25;;;;;6.47;49.96;102171.16;5058528;28;46812;-72
2022/03/01 01:50:10;;;;;;;;;56.50;45.75;;;;;6.50;49.78;102167.31;5039179;28;45633;-75
2022/03/01 01:52:35;;;;;;;;;60.50;48.50;;;;;6.44;50.51;102160.56;5058799;28;45761;-73
2022/03/01 01:55:01;;;;;;;;;67.50;49.50;;;;;6.41;50.43;102155.41;5059952;28;45391;-74
2022/03/01 01:57:26;;;;;;;;;53.75;45.00;;;;;6.47;50.33;102170.31;5058230;28;45414;-74
2022/03/01 01:59:55;;;;;;;;;57.50;45.75;;;;;6.44;50.17;102168.75;5058815;28;45382;-74
2022/03/01 02:02:23;;;;;;;;;59.50;45.00;;;;;6.42;50.26;102167.16;5060518;28;45568;-77
2022/03/01 02:04:48;;;;;;;;;51.50;41.00;;;;;6.38;50.04;102161.16;5059981;28;45867;-74
2022/03/01 02:07:14;;;;;;;;;59.75;47.00;;;;;6.40;50.60;102175.50;5057218;28;47518;-74
2022/03/01 02:09:40;;;;;;;;;60.00;46.25;;;;;6.36;50.44;102165.88;5058041;28;45792;-73
2022/03/01 02:12:06;;;;;;;;;64.00;47.75;;;;;6.36;50.88;102171.31;5040269;28;45740;-73
2022/03/01 02:14:33;;;;;;;;;58.00;47.00;;;;;6.36;50.39;102171.31;5058819;28;45359;-74
2022/03/01 02:17:00;;;;;;;;;59.25;47.25;;;;;6.34;51.15;102170.63;5057417;28;45549;-73
2022/03/01 02:19:26;;;;;;;;;53.75;44.25;;;;;6.30;50.75;102169.19;5057442;28;45709;-74
2022/03/01 02:21:57;;;;;;;;;56.00;46.00;;;;;6.29;50.32;102164.78;5058466;28;45438;-73
2022/03/01 02:24:44;;;;;;;;;56.00;46.00;;;;;6.31;51.00;102177.22;5062262;28;45834;-73
2022/03/01 02:27:09;;;;;;;;;57.50;45.25;;;;;6.33;50.51;102177.94;5064073;28;46355;-75
2022/03/01 02:29:44;;;;;;;;;51.75;43.25;;;;;6.35;50.95;102175.06;5047214;28;46058;-73
2022/03/01 02:32:15;;;;;;;;;62.25;46.50;;;;;6.34;50.31;102168.75;5048790;28;44885;-74
2022/03/01 02:34:55;;;;;;;;;57.25;43.00;;;;;6.35;50.71;102164.19;5061231;28;46207;-73
2022/03/01 02:37:20;;;;;;;;;56.50;42.75;;;;;6.34;50.74;102149.69;5060281;28;46688;-74
2022/03/01 02:39:46;;;;;;;;;57.00;44.25;;;;;6.40;50.38;102164.59;5067590;28;45440;-73
2022/03/01 02:42:11;;;;;;;;;56.50;43.75;;;;;6.38;50.71;102158.44;5058305;28;46454;-73
2022/03/01 02:44:37;;;;;;;;;56.00;44.00;;;;;6.39;50.88;102162.84;5058364;28;45452;-73
2022/03/01 02:47:02;;;;;;;;;58.50;48.25;;;;;6.41;50.75;102160.88;5040061;28;46782;-74
2022/03/01 02:49:28;;;;;;;;;55.25;43.25;;;;;6.41;51.03;102166.31;5058086;28;45422;-75
2022/03/01 02:51:53;;;;;;;;;59.00;44.50;;;;;6.43;50.89;102168.88;5058840;28;45351;-75
2022/03/01 02:54:19;;;;;;;;;53.50;42.25;;;;;6.42;51.02;102157.16;5059421;28;45821;-72
2022/03/01 02:56:44;;;;;;;;;60.50;47.75;;;;;6.45;50.26;102170.47;5041803;28;46523;-75
2022/03/01 02:59:10;;;;;;;;;59.00;47.00;;;;;6.45;50.52;102158.69;5040558;28;45751;-75
2022/03/01 03:01:35;;;;;;;;;60.50;47.25;;;;;6.45;50.46;102166.88;5057885;28;45684;-74
2022/03/01 03:04:00;;;;;;;;;60.25;47.00;;;;;6.43;50.87;102163.44;5059084;28;45716;-72
2022/03/01 03:06:26;;;;;;;;;60.25;47.25;;;;;6.40;51.14;102159.13;5079677;28;45347;-74
2022/03/01 03:08:52;;;;;;;;;54.00;44.25;;;;;6.35;50.69;102169.63;5079200;28;45434;-73
2022/03/01 03:11:18;;;;;;;;;56.50;45.25;;;;;6.31;51.00;102176.38;5079844;28;44829;-77
2022/03/01 03:13:43;;;;;;;;;63.25;46.75;;;;;6.29;50.66;102168.34;5075692;28;45445;-73
2022/03/01 03:16:10;;;;;;;;;58.75;44.00;;;;;6.35;51.22;102177.81;5040168;28;48638;-73
2022/03/01 03:18:37;;;;;;;;;56.75;42.00;;;;;6.33;51.11;102171.63;5057337;28;45781;-73
2022/03/01 03:21:04;;;;;;;;;57.50;44.00;;;;;6.29;51.24;102162.88;5040589;28;45422;-75
2022/03/01 03:23:33;;;;;;;;;60.00;47.25;;;;;6.27;51.52;102164.91;5059459;28;45313;-73
2022/03/01 03:26:00;;;;;;;;;57.50;46.25;;;;;6.24;51.48;102161.59;5059205;28;45485;-74
2022/03/01 03:28:29;;;;;;;;;64.50;48.50;;;;;6.21;51.72;102160.03;5044317;28;45317;-74
2022/03/01 03:31:09;;;;;;;;;62.50;48.00;;;;;6.19;51.58;102171.06;5044838;28;45418;-72
2022/03/01 03:33:59;;;;;;;;;59.25;46.00;;;;;6.16;51.16;102162.34;5062829;28;45383;-74
2022/03/01 03:36:36;;;;;;;;;59.00;46.25;;;;;6.17;51.59;102158.63;5043887;28;46836;-74
2022/03/01 03:39:05;;;;;;;;;56.00;42.75;;;;;6.16;52.03;102152.28;5051638;28;45384;-73
2022/03/01 03:41:31;;;;;;;;;57.25;47.50;;;;;6.14;51.68;102148.84;5082772;28;45409;-74
2022/03/01 03:44:00;;;;;;;;;54.75;41.00;;;;;6.11;51.67;102146.44;5064686;28;45594;-76
2022/03/01 03:46:44;;;;;;;;;57.00;45.25;;;;;5.97;51.42;102127.78;5064503;28;45779;-74
2022/03/01 03:49:17;;;;;;;;;59.75;46.50;;;;;6.05;51.70;102141.56;5086082;28;45346;-80
2022/03/01 03:52:08;;;;;;;;;63.25;48.00;;;;;6.15;52.09;102153.31;5092045;28;45409;-80
2022/03/01 03:55:06;;;;;;;;;60.75;46.75;;;;;6.13;51.63;102144.41;5091146;28;45562;-79
2022/03/01 03:57:36;;;;;;;;;61.25;49.00;;;;;5.68;52.18;102066.03;5090622;28;44979;-78
2022/03/01 04:00:18;;;;;;;;;60.75;50.25;;;;;6.08;51.68;102138.53;5091069;28;45344;-80
2022/03/01 04:03:00;;;;;;;;;59.50;46.75;;;;;6.10;52.05;102135.69;5076849;28;45233;-79
2022/03/01 04:05:41;;;;;;;;;53.75;43.25;;;;;6.07;52.01;102142.25;5078086;28;44785;-79
2022/03/01 04:08:17;;;;;;;;;61.75;49.75;;;;;6.08;51.96;102137.66;5095724;28;45076;-79
2022/03/01 04:11:13;;;;;;;;;62.50;48.00;;;;;6.03;52.40;102127.22;5076804;28;45285;-79
2022/03/01 04:13:44;;;;;;;;;62.50;50.25;;;;;6.00;52.37;102120.22;5069381;28;45364;-81
2022/03/01 04:16:19;;;;;;;;;58.50;47.50;;;;;5.98;52.07;102121.34;5093168;28;44843;-79
2022/03/01 04:18:54;;;;;;;;;55.75;45.00;;;;;6.00;52.70;102136.56;5082563;28;45300;-79
2022/03/01 04:21:20;;;;;;;;;60.00;47.00;;;;;5.95;52.99;102127.06;5070250;28;45898;-79
2022/03/01 04:23:46;;;;;;;;;64.25;48.00;;;;;6.03;52.79;102142.69;5067500;28;45414;-79
2022/03/01 04:26:12;;;;;;;;;59.50;45.00;;;;;6.10;52.15;102150.16;5076778;28;45383;-79
2022/03/01 04:28:37;;;;;;;;;58.25;43.25;;;;;6.12;52.64;102150.88;5087228;28;45417;-79
2022/03/01 04:31:03;;;;;;;;;62.75;47.75;;;;;6.15;52.64;102146.97;5066584;28;45381;-78
2022/03/01 04:33:28;;;;;;;;;57.00;43.75;;;;;6.15;52.66;102142.41;5085329;28;45229;-79
2022/03/01 04:35:54;;;;;;;;;62.00;47.50;;;;;6.15;52.10;102142.41;5088313;28;45500;-79
2022/03/01 04:38:20;;;;;;;;;60.00;46.50;;;;;6.13;52.46;102138.09;5085897;28;45398;-80
2022/03/01 04:40:46;;;;;;;;;62.75;47.25;;;;;6.11;52.37;102142.84;5077430;28;45432;-79
2022/03/01 04:43:12;;;;;;;;;59.00;46.75;;;;;6.14;52.68;102142.56;5066088;28;45324;-79
2022/03/01 04:45:37;;;;;;;;;60.50;46.75;;;;;6.16;52.46;102149.56;5064453;28;45470;-79
2022/03/01 04:48:03;;;;;;;;;63.00;48.00;;;;;6.15;52.88;102136.09;5066344;28;45374;-78
2022/03/01 04:50:28;;;;;;;;;59.50;47.75;;;;;6.19;53.16;102143.81;5045161;28;45708;-78
2022/03/01 04:52:54;;;;;;;;;58.25;45.00;;;;;6.24;52.75;102137.09;5062892;28;45367;-80
2022/03/01 04:55:19;;;;;;;;;59.00;46.25;;;;;6.26;52.08;102146.84;5068042;28;45701;-79
2022/03/01 04:57:44;;;;;;;;;59.00;46.25;;;;;6.32;52.56;102143.53;5067299;28;45244;-79
2022/03/01 05:00:12;;;;;;;;;59.75;46.25;;;;;6.38;52.13;102143.94;5085165;28;45583;-79
2022/03/01 05:02:44;;;;;;;;;63.75;49.75;;;;;6.39;51.83;102135.59;5084318;28;45545;-80
2022/03/01 05:05:11;;;;;;;;;68.25;50.50;;;;;6.39;52.34;102141.06;5085506;28;45919;-78
2022/03/01 05:07:41;;;;;;;;;67.25;49.25;;;;;6.42;51.97;102151.69;5066469;28;48768;-80
2022/03/01 05:10:09;;;;;;;;;56.00;47.50;;;;;6.46;52.28;102142.19;5082968;28;45813;-80
2022/03/01 05:12:52;;;;;;;;;57.00;45.75;;;;;6.49;52.07;102147.34;5085159;28;45356;-78
2022/03/01 05:15:19;;;;;;;;;62.00;47.00;;;;;6.51;51.86;102145.34;5069276;28;46083;-79
2022/03/01 05:17:45;;;;;;;;;64.50;48.25;;;;;6.50;51.97;102138.19;5063400;28;45422;-79
2022/03/01 05:20:13;;;;;;;;;59.50;47.00;;;;;6.55;51.53;102137.72;5064083;28;45739;-80
2022/03/01 05:22:39;;;;;;;;;60.25;47.50;;;;;6.54;51.22;102139.59;5062403;28;45994;-79
2022/03/01 05:25:09;;;;;;;;;61.00;48.00;;;;;6.56;51.89;102136.72;5063948;28;45397;-79
2022/03/01 05:27:35;;;;;;;;;51.25;43.25;;;;;6.54;52.23;102131.44;5046990;28;47563;-79
2022/03/01 05:30:00;;;;;;;;;65.75;49.00;;;;;6.52;52.04;102136.16;5072051;28;45277;-78
2022/03/01 05:32:27;;;;;;;;;62.50;48.00;;;;;6.44;51.83;102119.69;5085755;28;45358;-77
2022/03/01 05:34:52;;;;;;;;;59.50;45.50;;;;;6.57;51.84;102146.59;5068060;28;45866;-78
2022/03/01 05:37:18;;;;;;;;;60.75;47.00;;;;;6.62;51.89;102140.75;5085837;28;45382;-78
2022/03/01 05:39:43;;;;;;;;;59.25;42.50;;;;;6.64;51.79;102138.72;5086386;28;45874;-78
2022/03/01 05:42:08;;;;;;;;;51.75;43.25;;;;;6.65;51.30;102135.00;5085649;28;45466;-79
2022/03/01 05:44:34;;;;;;;;;56.25;45.50;;;;;6.65;51.14;102126.81;5067753;28;46517;-79
2022/03/01 05:47:00;;;;;;;;;59.25;46.50;;;;;6.67;51.48;102128.34;5067085;28;46750;-79
2022/03/01 05:49:25;;;;;;;;;58.75;44.50;;;;;6.70;50.92;102132.66;5068855;28;45739;-79
2022/03/01 05:51:51;;;;;;;;;56.00;44.75;;;;;6.71;52.07;102129.78;5087002;28;45800;-78
2022/03/01 05:54:16;;;;;;;;;59.50;47.75;;;;;6.77;50.70;102128.34;5086045;28;45477;-79
2022/03/01 05:56:41;;;;;;;;;63.25;45.50;;;;;6.77;51.00;102128.34;5083295;28;45231;-79
2022/03/01 05:59:07;;;;;;;;;55.00;44.50;;;;;6.77;51.31;102141.97;5082989;28;45466;-78
2022/03/01 06:01:33;;;;;;;;;62.25;46.00;;;;;6.74;51.47;102123.19;5083056;28;45636;-79
2022/03/01 06:03:58;;;;;;;;;59.50;45.50;;;;;6.81;51.02;102118.84;5084661;28;45397;-79
2022/03/01 06:06:24;;;;;;;;;58.25;48.00;;;;;6.86;51.28;102132.88;5085436;28;45390;-78
2022/03/01 06:08:49;;;;;;;;;60.25;45.25;;;;;6.82;51.99;102115.09;5084002;28;45569;-78
2022/03/01 06:11:14;;;;;;;;;55.75;45.00;;;;;6.95;51.75;102136.56;5085014;28;45276;-79
2022/03/01 06:13:40;;;;;;;;;58.75;46.50;;;;;6.96;51.02;102126.50;5084666;28;45324;-79
2022/03/01 06:16:06;;;;;;;;;56.00;45.00;;;;;7.07;50.35;102145.44;5084464;28;47134;-79
2022/03/01 06:18:31;;;;;;;;;57.75;43.25;;;;;7.10;50.28;102145.13;5067826;28;45360;-79
2022/03/01 06:20:58;;;;;;;;;56.50;44.50;;;;;7.11;50.16;102141.41;5086624;28;45403;-80
2022/03/01 06:23:24;;;;;;;;;59.75;48.25;;;;;7.13;50.29;102142.09;5068309;28;46017;-79
2022/03/01 06:25:50;;;;;;;;;62.25;45.50;;;;;7.16;50.37;102151.84;5084151;28;45904;-79
2022/03/01 06:28:16;;;;;;;;;59.75;47.50;;;;;7.18;50.36;102150.66;5066687;28;45824;-79
2022/03/01 06:30:41;;;;;;;;;60.50;46.50;;;;;7.24;50.18;102152.81;5086253;28;45413;-78
2022/03/01 06:33:07;;;;;;;;;51.75;40.25;;;;;7.29;50.51;102160.53;5064954;28;45566;-79
2022/03/01 06:35:32;;;;;;;;;63.00;47.00;;;;;7.32;49.71;102142.97;5082312;28;45528;-79
2022/03/01 06:37:57;;;;;;;;;62.50;46.75;;;;;7.39;50.98;102150.38;5083880;28;45335;-78
2022/03/01 06:40:23;;;;;;;;;67.50;49.00;;;;;7.43;50.09;102150.97;5082305;28;45405;-78
2022/03/01 06:42:50;;;;;;;;;69.25;50.75;;;;;7.48;50.26;102147.78;5066094;28;45383;-79
2022/03/01 06:45:16;;;;;;;;;68.00;49.50;;;;;7.50;49.91;102153.91;5064690;28;45484;-79
2022/03/01 06:47:42;;;;;;;;;67.25;49.25;;;;;7.58;50.01;102154.88;5064085;28;45297;-78
2022/03/01 06:50:08;;;;;;;;;63.75;48.75;;;;;7.63;49.29;102161.75;5063794;28;45351;-79
2022/03/01 06:52:35;;;;;;;;;74.50;57.25;;;;;7.66;49.65;102159.56;5065067;28;45789;-77
2022/03/01 06:55:05;;;;;;;;;67.25;50.75;;;;;7.80;49.56;102169.09;5064738;28;46116;-79
2022/03/01 06:57:31;;;;;;;;;68.75;49.00;;;;;7.87;50.12;102152.94;5062250;28;45427;-79
2022/03/01 06:59:57;;;;;;;;;64.00;49.00;;;;;8.00;49.31;102161.59;5062407;28;45898;-79
2022/03/01 07:02:25;;;;;;;;;62.00;48.50;;;;;8.08;48.00;102166.28;5062721;28;45897;-79
2022/03/01 07:04:50;;;;;;;;;60.00;46.25;;;;;8.13;47.98;102166.69;5063997;28;46630;-79
2022/03/01 07:07:16;;;;;;;;;60.25;44.75;;;;;8.15;48.11;102167.38;5062687;28;45462;-79
2022/03/01 07:09:42;;;;;;;;;64.75;49.50;;;;;8.22;47.88;102176.66;5044077;28;45973;-78
2022/03/01 07:12:07;;;;;;;;;62.50;47.50;;;;;8.22;48.22;102175.78;5062131;28;45865;-80
2022/03/01 07:14:33;;;;;;;;;54.50;45.25;;;;;8.18;47.71;102167.06;5072504;28;45939;-78
2022/03/01 07:16:58;;;;;;;;;59.75;46.75;;;;;8.13;47.37;102169.41;5082007;28;45798;-78
2022/03/01 07:19:23;;;;;;;;;58.25;47.00;;;;;8.11;48.01;102176.88;5083610;28;45690;-79
2022/03/01 07:21:49;;;;;;;;;59.25;45.00;;;;;8.11;47.71;102175.03;5082677;28;45597;-78
2022/03/01 07:24:14;;;;;;;;;61.25;46.25;;;;;8.13;47.64;102180.34;5084600;28;45451;-79
2022/03/01 07:26:40;;;;;;;;;51.75;42.25;;;;;8.16;47.60;102179.16;5065910;28;45432;-80
2022/03/01 07:29:05;;;;;;;;;53.50;45.25;;;;;8.23;47.12;102174.78;5082613;28;45303;-81
2022/03/01 07:31:31;;;;;;;;;62.00;46.50;;;;;8.22;47.66;102178.50;5084019;28;45335;-79
2022/03/01 07:33:57;;;;;;;;;58.00;46.50;;;;;8.25;47.51;102172.75;5084540;28;44974;-79
2022/03/01 07:36:22;;;;;;;;;58.75;47.00;;;;;8.28;47.08;102165.09;5081950;28;45849;-80
2022/03/01 07:38:48;;;;;;;;;57.00;46.00;;;;;8.33;47.34;102180.16;5066906;28;44690;-80
2022/03/01 07:41:14;;;;;;;;;56.00;45.50;;;;;8.40;47.34;102182.09;5066234;28;45708;-79
2022/03/01 07:43:39;;;;;;;;;64.25;47.00;;;;;8.47;46.75;102177.75;5082113;28;45850;-79
2022/03/01 07:46:07;;;;;;;;;57.00;44.75;;;;;8.58;47.16;102173.03;5082585;28;44803;-78
2022/03/01 07:48:32;;;;;;;;;57.75;45.75;;;;;8.68;47.10;102164.72;5085197;28;45442;-80
2022/03/01 07:50:58;;;;;;;;;63.75;49.00;;;;;8.69;46.81;102152.75;5081505;28;45728;-78
2022/03/01 07:53:23;;;;;;;;;58.00;46.25;;;;;8.78;46.36;102162.72;5065901;28;46550;-79
2022/03/01 07:55:48;;;;;;;;;59.00;47.00;;;;;8.82;46.59;102164.13;5083765;28;45300;-79
2022/03/01 07:58:14;;;;;;;;;57.50;46.25;;;;;8.88;46.32;102165.31;5081862;28;44825;-79
2022/03/01 08:00:39;;;;;;;;;59.75;47.25;;;;;8.93;46.45;102165.72;5082539;28;45431;-78
2022/03/01 08:03:05;;;;;;;;;60.25;48.50;;;;;8.96;46.63;102165.38;5065389;28;47048;-78
2022/03/01 08:05:30;;;;;;;;;59.50;47.50;;;;;9.03;46.40;102171.91;5084813;28;45430;-80
2022/03/01 08:07:57;;;;;;;;;61.25;47.00;;;;;9.13;46.19;102177.25;5063715;28;45355;-77
2022/03/01 08:10:23;;;;;;;;;57.25;43.50;;;;;9.24;46.31;102178.88;5082490;28;45380;-78
2022/03/01 08:12:48;;;;;;;;;53.00;44.00;;;;;9.35;45.59;102182.13;5065052;28;47416;-79
2022/03/01 08:15:14;;;;;;;;;56.25;45.00;;;;;9.46;45.56;102181.00;5067344;28;45976;-78
2022/03/01 08:17:51;;;;;;;;;56.75;42.75;;;;;9.56;45.71;102183.56;5044215;28;44782;-79
2022/03/01 08:20:16;;;;;;;;;57.25;46.00;;;;;9.62;45.05;102176.59;5063414;28;45538;-79
2022/03/01 08:22:42;;;;;;;;;59.50;47.00;;;;;9.68;44.63;102179.50;5062787;28;45525;-79
2022/03/01 08:25:08;;;;;;;;;57.00;44.00;;;;;9.69;44.81;102167.53;5062664;28;45490;-79
2022/03/01 08:27:34;;;;;;;;;58.50;45.50;;;;;9.74;45.00;102168.91;5061651;28;45740;-79
2022/03/01 08:29:59;;;;;;;;;61.00;47.50;;;;;9.81;44.81;102167.22;5069925;28;45824;-80
2022/03/01 08:32:25;;;;;;;;;59.50;45.50;;;;;9.84;44.74;102164.97;5082003;28;46107;-79
2022/03/01 08:34:50;;;;;;;;;59.00;46.75;;;;;9.96;44.65;102168.25;5081389;28;44894;-79
2022/03/01 08:37:16;;;;;;;;;62.00;46.25;;;;;10.09;44.40;102170.50;5081596;28;46017;-78
2022/03/01 08:39:41;;;;;;;;;57.00;45.00;;;;;10.24;44.21;102171.53;5082781;28;45276;-78
2022/03/01 08:42:07;;;;;;;;;59.50;45.75;;;;;10.39;43.71;102179.94;5066160;28;45569;-79
2022/03/01 08:44:32;;;;;;;;;57.25;46.00;;;;;10.54;43.85;102179.25;5060872;28;44791;-79
2022/03/01 08:46:57;;;;;;;;;57.25;44.00;;;;;10.69;42.98;102173.88;5063051;28;45327;-79
2022/03/01 08:49:23;;;;;;;;;61.00;47.25;;;;;10.89;42.50;102180.72;5066583;28;46016;-79
2022/03/01 08:51:49;;;;;;;;;56.75;42.25;;;;;11.08;42.53;102179.47;5049524;28;45698;-78
2022/03/01 08:54:14;;;;;;;;;64.00;48.00;;;;;11.25;41.86;102187.63;5067645;28;45501;-81
2022/03/01 08:56:40;;;;;;;;;59.00;45.50;;;;;11.39;42.50;102186.03;5049831;28;44783;-79
2022/03/01 08:59:06;;;;;;;;;60.25;45.25;;;;;11.49;41.30;102182.00;5065763;28;45770;-80
2022/03/01 09:01:32;;;;;;;;;61.50;47.75;;;;;11.55;41.29;102179.59;5067021;28;47900;-79
2022/03/01 09:03:59;;;;;;;;;64.00;47.50;;;;;11.47;41.25;102166.78;5066740;28;45520;-80
2022/03/01 09:06:25;;;;;;;;;60.00;46.00;;;;;11.52;41.24;102166.22;5065823;28;44929;-79
2022/03/01 09:08:51;;;;;;;;;58.25;44.50;;;;;11.65;41.22;102185.72;5066513;28;45392;-80
2022/03/01 09:11:17;;;;;;;;;55.50;43.00;;;;;11.71;40.71;102185.00;5065946;28;46248;-80
2022/03/01 09:13:43;;;;;;;;;58.25;45.00;;;;;11.80;40.33;102181.16;5047947;28;45422;-79
2022/03/01 09:16:08;;;;;;;;;52.50;42.00;;;;;11.96;40.90;102176.63;5065804;28;45734;-80
2022/03/01 09:18:34;;;;;;;;;57.00;44.25;;;;;12.07;40.17;102172.59;5066660;28;45415;-79
2022/03/01 09:21:00;;;;;;;;;59.75;46.00;;;;;12.19;39.73;102173.88;5065810;28;45885;-80
2022/03/01 09:23:26;;;;;;;;;56.50;44.75;;;;;12.29;39.38;102170.84;5067304;28;45431;-79
2022/03/01 09:25:51;;;;;;;;;50.75;41.00;;;;;12.39;39.25;102165.94;5065371;28;45863;-80
2022/03/01 09:28:17;;;;;;;;;55.00;44.00;;;;;12.42;38.93;102165.56;5065226;28;45345;-80
2022/03/01 09:30:43;;;;;;;;;90.25;73.25;;;;;12.53;39.44;102162.38;5061018;28;45825;-80
2022/03/01 09:33:08;;;;;;;;;57.25;45.00;;;;;12.62;38.74;102165.03;5086039;28;45367;-81
2022/03/01 09:35:34;;;;;;;;;57.75;45.00;;;;;12.68;38.98;102165.16;5086310;28;45325;-81
2022/03/01 09:37:59;;;;;;;;;52.75;43.00;;;;;12.80;38.43;102162.81;5086044;28;45358;-80
2022/03/01 09:40:26;;;;;;;;;52.00;42.75;;;;;12.95;38.38;102165.56;5078423;28;45739;-79
2022/03/01 09:42:52;;;;;;;;;53.25;42.25;;;;;13.03;37.64;102173.72;5063724;28;45383;-78
2022/03/01 09:45:18;;;;;;;;;54.50;43.00;;;;;13.07;37.52;102152.16;5047223;28;45719;-78
2022/03/01 09:47:44;;;;;;;;;60.50;44.25;;;;;13.31;36.75;102162.03;5026165;28;46727;-74
2022/03/01 09:50:11;;;;;;;;;55.75;42.50;;;;;13.55;36.82;102171.88;5041041;28;45751;-75
2022/03/01 09:52:36;;;;;;;;;48.50;35.75;;;;;13.87;36.48;102169.69;5041476;28;45521;-74
2022/03/01 09:55:03;;;;;;;;;56.75;41.25;;;;;14.19;35.63;102172.13;5061153;28;45327;-79
2022/03/01 09:57:28;;;;;;;;;56.00;42.00;;;;;14.59;34.78;102176.06;5046296;28;46375;-79
2022/03/01 09:59:54;;;;;;;;;51.25;40.50;;;;;15.04;34.06;102170.25;5045528;28;46965;-79
2022/03/01 10:02:19;;;;;;;;;50.75;40.00;;;;;15.66;33.76;102179.47;5063609;28;45409;-79
2022/03/01 10:04:57;;;;;;;;;52.50;44.00;;;;;16.32;32.59;102169.63;5060173;28;45898;-74
2022/03/01 10:07:25;;;;;;;;;54.00;42.75;;;;;16.89;31.64;102170.03;5063438;28;46103;-79
2022/03/01 10:09:52;;;;;;;;;55.25;41.25;;;;;17.26;31.61;102161.16;5066927;28;45466;-80
2022/03/01 10:12:25;;;;;;;;;41.67;37.00;;;;;17.62;30.53;102168.06;5065311;28;45446;-80
2022/03/01 10:14:59;;;;;;;;;56.00;44.33;;;;;17.79;30.25;102172.00;5076708;28;44757;-80
2022/03/01 10:17:41;;;;;;;;;45.00;34.00;;;;;17.65;30.17;102167.63;5083281;28;45750;-82
2022/03/01 10:20:16;;;;;;;;;49.67;37.67;;;;;17.61;30.22;102169.97;5085349;28;45499;-80
2022/03/01 10:22:46;;;;;;;;;52.33;37.33;;;;;17.64;29.85;102165.91;5066644;28;45351;-79
2022/03/01 10:25:14;;;;;;;;;52.33;39.67;;;;;17.82;29.26;102159.63;5083972;28;45392;-79
2022/03/01 10:27:39;;;;;;;;;51.00;39.67;;;;;17.90;28.75;102158.53;5064023;28;45571;-79
2022/03/01 10:30:07;;;;;;;;;48.33;39.67;;;;;18.06;29.59;102160.78;5075974;28;45382;-80
2022/03/01 10:32:34;;;;;;;;;49.67;39.33;;;;;18.24;28.57;102160.00;5059996;28;45673;-74
2022/03/01 10:35:04;;;;;;;;;48.67;39.33;;;;;18.03;28.80;102152.91;5057937;28;45367;-75
2022/03/01 10:37:32;;;;;;;;;45.33;36.33;;;;;18.03;29.46;102166.78;5059001;28;45308;-74
2022/03/01 10:40:20;;;;;;;;;53.33;40.00;;;;;18.13;29.57;102161.59;5057078;28;46598;-76
2022/03/01 10:43:15;;;;;;;;;49.00;37.67;;;;;17.93;29.52;102160.88;5059591;28;45521;-79
2022/03/01 10:45:49;;;;;;;;;46.67;38.67;;;;;17.72;29.65;102157.31;5062172;28;45861;-78
2022/03/01 10:48:23;;;;;;;;;40.33;34.67;;;;;17.60;29.57;102159.09;5064011;28;45756;-79
2022/03/01 10:51:02;;;;;;;;;40.00;36.33;;;;;17.29;30.41;102144.97;5042024;28;47230;-74
2022/03/01 10:53:33;;;;;;;;;51.00;37.67;;;;;17.14;30.63;102151.84;5058920;28;45454;-74
2022/03/01 10:56:01;;;;;;;;;52.33;39.00;;;;;17.12;30.52;102149.28;5059127;28;45408;-75
2022/03/01 10:58:28;;;;;;;;;44.00;35.00;;;;;17.10;30.59;102140.34;5057986;28;45442;-79
2022/03/01 11:00:56;;;;;;;;;44.67;36.33;;;;;17.07;30.33;102140.78;5065484;28;45419;-80
2022/03/01 11:03:25;;;;;;;;;43.33;39.33;;;;;16.97;30.10;102134.84;5035490;28;45458;-81
2022/03/01 11:06:09;;;;;;;;;43.33;37.00;;;;;16.88;30.30;102125.91;5050053;28;45544;-79
2022/03/01 11:08:39;;;;;;;;;58.00;43.75;;;;;17.05;30.26;102135.47;5032100;28;45365;-80
2022/03/01 11:11:07;;;;;;;;;46.50;39.00;;;;;17.05;29.73;102135.47;5047328;28;45421;-80
2022/03/01 11:13:37;;;;;;;;;48.00;37.33;;;;;16.92;30.17;102127.19;5045136;28;45944;-80
2022/03/01 11:16:25;;;;;;;;;44.67;37.67;;;;;16.86;30.58;102122.47;5066218;28;45414;-80